Time;durP1;ratioP1;P1;durP2;ratioP2;P2;SDS_P1;SDS_P2;PMS_P1;PMS_P2;Temp;Humidity;BMP_temperature;BMP_pressure;BME280_temperature;BME280_humidity;BME280_pressure;Samples;Min_cycle;Max_cycle;Signal;HPM_P1;HPM_P2
2024/02/06 00:02:11;;;;;;;;;14.00;14.00;;;;;9.73;75.58;102084.38;5048891;28;45378;-44
2024/02/06 00:04:36;;;;;;;;;11.33;9.00;;;;;9.70;75.50;102085.31;5042251;28;75517;-44
2024/02/06 00:07:01;;;;;;;;;19.00;14.33;;;;;9.69;75.54;102080.06;5039473;28;73235;-45
2024/02/06 00:09:27;;;;;;;;;9.33;9.33;;;;;9.70;75.66;102080.00;5050015;28;68141;-44
2024/02/06 00:11:52;;;;;;;;;17.00;13.00;;;;;9.72;75.94;102080.81;5039256;28;69426;-48
2024/02/06 00:14:18;;;;;;;;;13.67;11.67;;;;;9.74;75.54;102073.69;5041707;28;45531;-46
2024/02/06 00:16:45;;;;;;;;;14.00;12.00;;;;;9.76;75.72;102069.22;5047687;28;69000;-45
2024/02/06 00:19:10;;;;;;;;;15.00;10.67;;;;;9.77;75.67;102072.75;5043956;28;45472;-44
2024/02/06 00:21:35;;;;;;;;;14.67;14.00;;;;;9.77;75.95;102070.94;5049355;28;70083;-45
2024/02/06 00:24:01;;;;;;;;;15.00;13.33;;;;;9.79;75.59;102070.03;5050911;28;71894;-44
2024/02/06 00:26:26;;;;;;;;;16.00;13.67;;;;;9.79;75.92;102064.72;5046768;28;72370;-45
2024/02/06 00:28:52;;;;;;;;;11.00;11.00;;;;;9.80;75.88;102062.03;5052797;28;45393;-48
2024/02/06 00:31:17;;;;;;;;;14.67;12.00;;;;;9.83;75.45;102067.28;5047477;28;45549;-46
2024/02/06 00:33:42;;;;;;;;;12.33;11.33;;;;;9.81;75.78;102057.59;5049829;28;46971;-43
2024/02/06 00:36:08;;;;;;;;;15.67;11.33;;;;;9.80;76.02;102058.50;5038940;28;61034;-44
2024/02/06 00:38:33;;;;;;;;;13.67;12.33;;;;;9.82;75.66;102046.91;5041189;28;45311;-44
2024/02/06 00:40:58;;;;;;;;;10.00;9.67;;;;;9.82;75.45;102046.06;5039142;28;45416;-44
2024/02/06 00:43:24;;;;;;;;;14.33;12.33;;;;;9.79;75.54;102044.38;5042408;28;71653;-44
2024/02/06 00:45:52;;;;;;;;;11.67;9.00;;;;;9.79;75.94;102048.78;5038604;28;45375;-44
2024/02/06 00:48:17;;;;;;;;;11.00;9.00;;;;;9.80;76.03;102042.56;5047753;28;69165;-46
2024/02/06 00:50:43;;;;;;;;;15.67;13.00;;;;;9.79;75.70;102031.06;5048926;28;69255;-47
2024/02/06 00:53:08;;;;;;;;;12.67;11.67;;;;;9.80;75.86;102032.78;5038268;28;61621;-46
2024/02/06 00:55:33;;;;;;;;;14.00;10.67;;;;;9.82;76.02;102035.44;5038341;28;73884;-44
2024/02/06 00:57:59;;;;;;;;;13.33;12.00;;;;;9.83;76.08;102032.72;5039932;28;50471;-46
2024/02/06 01:00:24;;;;;;;;;13.00;11.33;;;;;9.85;75.85;102033.53;5044139;28;67629;-45
2024/02/06 01:02:49;;;;;;;;;10.33;9.33;;;;;9.88;76.10;102033.47;5049878;28;75762;-45
2024/02/06 01:05:15;;;;;;;;;17.00;11.00;;;;;9.91;76.23;102037.84;5054924;28;45221;-45
2024/02/06 01:07:40;;;;;;;;;15.33;13.00;;;;;9.94;76.09;102032.44;5026371;28;61663;-45
2024/02/06 01:10:06;;;;;;;;;14.33;13.00;;;;;9.99;75.95;102033.16;5031037;28;65207;-47
2024/02/06 01:12:32;;;;;;;;;14.33;12.67;;;;;10.00;76.09;102031.38;5042398;28;46400;-47
2024/02/06 01:14:59;;;;;;;;;17.00;14.67;;;;;10.02;75.85;102038.38;5038809;28;71270;-46
2024/02/06 01:17:24;;;;;;;;;19.00;14.67;;;;;10.05;75.98;102025.03;5040642;28;45529;-45
2024/02/06 01:19:50;;;;;;;;;14.67;12.33;;;;;10.07;75.75;102025.84;5038988;28;45440;-46
2024/02/06 01:22:15;;;;;;;;;21.67;18.00;;;;;10.09;75.43;102020.50;5038194;28;69827;-49
2024/02/06 01:24:41;;;;;;;;;11.67;11.00;;;;;10.06;75.71;102016.16;5038834;28;45381;-47
2024/02/06 01:27:06;;;;;;;;;15.33;14.00;;;;;10.07;75.72;102019.66;5039206;28;58887;-45
2024/02/06 01:29:31;;;;;;;;;13.67;11.33;;;;;10.06;75.74;102021.47;5039327;28;45440;-45
2024/02/06 01:31:57;;;;;;;;;14.67;10.67;;;;;10.06;75.31;102015.25;5022561;28;46288;-47
2024/02/06 01:34:22;;;;;;;;;13.67;13.33;;;;;10.01;75.33;102009.19;5037532;28;45441;-45
2024/02/06 01:36:48;;;;;;;;;10.33;9.00;;;;;9.99;75.50;101998.63;5048754;28;59635;-46
2024/02/06 01:39:13;;;;;;;;;16.00;14.33;;;;;9.96;75.52;101992.50;5049033;28;58214;-44
2024/02/06 01:41:38;;;;;;;;;19.00;15.33;;;;;9.92;75.35;101997.91;5021883;28;72459;-46
2024/02/06 01:44:04;;;;;;;;;19.33;16.67;;;;;9.87;75.54;101997.19;5040293;28;71890;-45
2024/02/06 01:46:29;;;;;;;;;15.33;10.33;;;;;9.84;75.65;101986.66;5053181;28;45245;-45
2024/02/06 01:48:55;;;;;;;;;20.33;15.33;;;;;9.83;75.98;101989.31;5049650;28;45753;-44
2024/02/06 01:51:23;;;;;;;;;16.33;16.00;;;;;9.84;75.85;101994.63;5038537;28;66958;-46
2024/02/06 01:53:49;;;;;;;;;18.67;12.33;;;;;9.83;75.90;101984.00;5038889;28;45320;-43
2024/02/06 01:56:15;;;;;;;;;17.33;14.67;;;;;9.83;76.03;101992.88;5047579;28;45376;-45
2024/02/06 01:58:40;;;;;;;;;15.33;12.33;;;;;9.83;76.24;101987.56;5047976;28;62649;-46
2024/02/06 02:01:06;;;;;;;;;16.33;11.33;;;;;9.83;75.86;101992.88;5020335;28;46012;-44
2024/02/06 02:03:35;;;;;;;;;18.00;14.33;;;;;9.84;75.96;101993.72;5056765;28;45509;-48
2024/02/06 02:06:00;;;;;;;;;12.67;7.33;;;;;9.82;75.97;101990.25;5046739;28;45709;-45
2024/02/06 02:08:33;;;;;;;;;17.33;16.67;;;;;9.81;76.16;101983.19;5049987;28;45414;-45
2024/02/06 02:10:59;;;;;;;;;16.00;14.33;;;;;9.83;76.19;101978.69;5037441;28;46251;-46
2024/02/06 02:13:25;;;;;;;;;18.67;13.67;;;;;9.83;76.06;101984.91;5041288;28;45416;-44
2024/02/06 02:15:50;;;;;;;;;10.67;10.67;;;;;9.83;76.19;101981.34;5042372;28;45776;-47
2024/02/06 02:18:16;;;;;;;;;15.67;12.33;;;;;9.82;76.37;101969.88;5050035;28;45308;-45
2024/02/06 02:20:41;;;;;;;;;16.67;14.67;;;;;9.81;76.31;101978.75;5044372;28;74489;-44
2024/02/06 02:23:07;;;;;;;;;18.33;16.33;;;;;9.81;76.15;101965.44;5045074;28;45218;-46
2024/02/06 02:25:32;;;;;;;;;17.00;14.00;;;;;9.81;76.53;101965.44;5040627;28;45570;-45
2024/02/06 02:27:58;;;;;;;;;20.00;17.67;;;;;9.83;76.42;101962.75;5041715;28;45590;-44
2024/02/06 02:30:24;;;;;;;;;19.33;17.33;;;;;9.82;76.26;101963.69;5023470;28;45948;-43
2024/02/06 02:32:49;;;;;;;;;16.33;15.00;;;;;9.81;76.65;101961.94;5030174;28;67721;-44
2024/02/06 02:35:15;;;;;;;;;17.00;15.67;;;;;9.83;76.28;101957.44;5047340;28;45829;-45
2024/02/06 02:37:40;;;;;;;;;13.67;12.00;;;;;9.83;76.21;101962.75;5027644;28;45503;-45
2024/02/06 02:40:07;;;;;;;;;8.67;5.00;;;;;9.85;76.50;101960.94;5027224;28;63488;-45
2024/02/06 02:42:32;;;;;;;;;18.33;17.67;;;;;9.84;76.56;101964.50;5021693;28;45694;-45
2024/02/06 02:44:57;;;;;;;;;30.33;23.00;;;;;9.85;76.00;101952.97;5032864;28;66870;-45
2024/02/06 02:47:23;;;;;;;;;36.00;29.67;;;;;9.84;76.28;101949.44;5021785;28;45407;-46
2024/02/06 02:49:48;;;;;;;;;25.00;24.67;;;;;9.82;76.53;101948.59;5022727;28;46130;-48
2024/02/06 02:52:14;;;;;;;;;28.00;25.00;;;;;9.85;76.22;101948.50;5020568;28;47918;-44
2024/02/06 02:54:39;;;;;;;;;18.33;17.67;;;;;9.85;76.10;101942.31;5033620;28;45511;-43
2024/02/06 02:57:05;;;;;;;;;23.67;16.00;;;;;9.83;76.14;101934.41;5021218;28;60823;-48
2024/02/06 02:59:30;;;;;;;;;16.00;14.33;;;;;9.81;76.41;101933.56;5020837;28;47131;-47
2024/02/06 03:01:56;;;;;;;;;16.33;13.67;;;;;9.83;76.32;101929.09;5025816;28;63040;-46
2024/02/06 03:04:21;;;;;;;;;22.67;16.67;;;;;9.81;76.37;101922.06;5036459;28;45820;-44
2024/02/06 03:06:46;;;;;;;;;20.67;19.00;;;;;9.82;76.56;101931.81;5024553;28;64914;-45
2024/02/06 03:09:15;;;;;;;;;22.00;16.00;;;;;9.83;76.34;101920.22;5023983;28;51479;-46
2024/02/06 03:11:40;;;;;;;;;19.00;18.00;;;;;9.85;76.43;101921.94;5023416;28;45462;-46
2024/02/06 03:14:05;;;;;;;;;14.33;12.00;;;;;9.87;76.27;101914.78;5023044;28;45394;-45
2024/02/06 03:16:31;;;;;;;;;18.33;17.33;;;;;9.90;76.28;101914.69;5020612;28;69299;-45
2024/02/06 03:18:56;;;;;;;;;22.00;18.00;;;;;9.92;76.50;101915.53;5021367;28;75124;-47
2024/02/06 03:21:21;;;;;;;;;10.67;8.67;;;;;9.94;75.88;101900.38;5021117;28;63277;-45
2024/02/06 03:23:47;;;;;;;;;20.00;18.33;;;;;9.94;76.20;101902.19;5021338;28;67467;-45
2024/02/06 03:26:12;;;;;;;;;18.33;18.33;;;;;9.96;76.06;101897.72;5033562;28;62544;-46
2024/02/06 03:28:37;;;;;;;;;21.00;15.33;;;;;9.98;76.47;101906.50;5026397;28;71340;-45
2024/02/06 03:31:03;;;;;;;;;17.33;15.33;;;;;9.98;75.80;101906.50;5020905;28;48997;-49
2024/02/06 03:33:28;;;;;;;;;17.00;13.00;;;;;9.97;76.03;101902.09;5020978;28;45334;-47
2024/02/06 03:35:53;;;;;;;;;17.00;15.33;;;;;9.96;75.90;101897.72;5021602;28;45244;-46
2024/02/06 03:38:19;;;;;;;;;19.00;15.33;;;;;9.96;76.15;101894.16;5037328;28;45384;-44
2024/02/06 03:40:45;;;;;;;;;16.00;15.33;;;;;9.99;75.70;101888.78;5045082;28;45376;-44
2024/02/06 03:43:10;;;;;;;;;16.67;15.67;;;;;9.97;75.86;101888.78;5057179;28;45534;-45
2024/02/06 03:45:36;;;;;;;;;19.00;17.67;;;;;9.93;75.72;101882.72;5039920;28;69057;-45
2024/02/06 03:48:01;;;;;;;;;20.00;17.67;;;;;9.92;75.71;101885.41;5040461;28;45327;-45
2024/02/06 03:50:27;;;;;;;;;15.67;15.00;;;;;9.92;75.74;101875.66;5045517;28;45361;-43
2024/02/06 03:52:52;;;;;;;;;18.67;16.33;;;;;9.91;75.84;101879.22;5050082;28;57687;-44
2024/02/06 03:55:17;;;;;;;;;20.67;17.67;;;;;9.93;76.11;101871.22;5038879;28;66579;-44
2024/02/06 03:57:42;;;;;;;;;22.00;20.00;;;;;9.92;75.81;101865.03;5041617;28;53842;-45
2024/02/06 04:00:08;;;;;;;;;19.00;16.00;;;;;9.93;75.89;101873.88;5038071;28;73105;-45
2024/02/06 04:02:34;;;;;;;;;18.00;15.67;;;;;9.93;76.12;101865.88;5055898;28;45638;-44
2024/02/06 04:04:59;;;;;;;;;16.00;16.00;;;;;9.93;76.07;101855.25;5052056;28;45253;-46
2024/02/06 04:07:25;;;;;;;;;19.33;17.33;;;;;9.96;75.96;101854.28;5041111;28;45919;-45
2024/02/06 04:09:50;;;;;;;;;17.67;17.00;;;;;9.97;75.90;101861.34;5039293;28;71248;-45
2024/02/06 04:12:15;;;;;;;;;16.00;15.00;;;;;9.96;75.87;101859.63;5051953;28;45663;-46
2024/02/06 04:14:41;;;;;;;;;23.33;14.67;;;;;10.00;75.90;101871.88;5039318;28;68413;-45
2024/02/06 04:17:06;;;;;;;;;20.67;19.33;;;;;10.01;76.03;101869.22;5041701;28;45453;-45
2024/02/06 04:19:32;;;;;;;;;21.00;16.00;;;;;10.02;75.56;101864.75;5038124;28;46094;-45
2024/02/06 04:21:57;;;;;;;;;20.00;16.67;;;;;10.03;75.87;101861.19;5043996;28;59247;-47
2024/02/06 04:24:22;;;;;;;;;19.67;17.00;;;;;10.03;75.77;101858.53;5048942;28;69521;-45
2024/02/06 04:26:48;;;;;;;;;20.67;17.67;;;;;10.04;75.63;101861.13;5039352;28;46926;-46
2024/02/06 04:29:13;;;;;;;;;19.33;18.00;;;;;10.08;75.81;101864.56;5039427;28;73265;-47
2024/02/06 04:31:39;;;;;;;;;18.33;16.00;;;;;10.09;75.50;101861.84;5039925;28;45790;-45
2024/02/06 04:34:04;;;;;;;;;19.33;16.67;;;;;10.11;75.55;101848.50;5040874;28;45786;-44
2024/02/06 04:36:29;;;;;;;;;16.00;16.00;;;;;10.10;75.78;101850.31;5038825;28;45389;-44
2024/02/06 04:38:55;;;;;;;;;17.67;16.00;;;;;10.09;75.66;101853.88;5054500;28;73156;-45
2024/02/06 04:41:20;;;;;;;;;20.00;15.67;;;;;10.08;75.58;101843.31;5056925;28;45369;-45
2024/02/06 04:43:45;;;;;;;;;21.00;18.00;;;;;10.09;75.52;101839.72;5040915;28;68012;-48
2024/02/06 04:46:11;;;;;;;;;16.33;16.00;;;;;10.13;75.74;101846.69;5038033;28;74560;-47
2024/02/06 04:48:36;;;;;;;;;19.00;16.00;;;;;10.13;75.54;101851.13;5046188;28;45640;-46
2024/02/06 04:51:02;;;;;;;;;15.33;15.00;;;;;10.14;75.77;101847.53;5039423;28;45351;-45
2024/02/06 04:53:28;;;;;;;;;19.67;18.00;;;;;10.15;75.67;101842.16;5038957;28;46091;-44
2024/02/06 04:55:53;;;;;;;;;20.00;17.00;;;;;10.15;75.70;101842.16;5032188;28;46161;-45
2024/02/06 04:58:18;;;;;;;;;18.00;16.67;;;;;10.16;75.50;101838.59;5043361;28;73135;-45
2024/02/06 05:00:44;;;;;;;;;19.00;17.67;;;;;10.17;75.44;101828.81;5046032;28;68334;-45
2024/02/06 05:03:09;;;;;;;;;17.33;17.33;;;;;10.17;75.62;101837.69;5053368;28;45559;-45
2024/02/06 05:05:35;;;;;;;;;19.67;17.67;;;;;10.18;75.74;101835.88;5037969;28;48343;-47
2024/02/06 05:08:00;;;;;;;;;17.67;17.33;;;;;10.19;75.58;101834.97;5040619;28;64468;-45
2024/02/06 05:10:25;;;;;;;;;20.67;18.00;;;;;10.17;75.54;101826.16;5041671;28;68277;-45
2024/02/06 05:12:51;;;;;;;;;16.00;15.67;;;;;10.17;75.72;101820.84;5044750;28;69441;-44
2024/02/06 05:15:16;;;;;;;;;19.67;19.00;;;;;10.18;75.76;101815.50;5046035;28;45489;-45
2024/02/06 05:17:41;;;;;;;;;21.67;17.67;;;;;10.20;75.63;101818.09;5039148;28;73414;-47
2024/02/06 05:20:09;;;;;;;;;19.33;16.00;;;;;10.18;75.79;101811.97;5038474;28;45458;-44
2024/02/06 05:22:37;;;;;;;;;15.67;15.00;;;;;10.19;75.91;101821.69;5042789;28;45479;-45
2024/02/06 05:25:03;;;;;;;;;15.00;14.67;;;;;10.21;75.62;101823.38;5051279;28;46255;-45
2024/02/06 05:27:28;;;;;;;;;19.33;16.33;;;;;10.25;75.64;101825.00;5041030;28;45408;-48
2024/02/06 05:29:53;;;;;;;;;20.33;17.00;;;;;10.27;75.99;101825.84;5047111;28;45336;-45
2024/02/06 05:32:19;;;;;;;;;22.33;20.00;;;;;10.29;75.66;101824.94;5042569;28;69343;-46
2024/02/06 05:34:45;;;;;;;;;21.67;18.67;;;;;10.30;75.66;101816.00;5049945;28;47191;-44
2024/02/06 05:37:10;;;;;;;;;19.33;17.00;;;;;10.29;75.50;101815.16;5058155;28;45384;-44
2024/02/06 05:39:35;;;;;;;;;22.00;19.00;;;;;10.23;75.29;101800.28;5050540;28;53852;-47
2024/02/06 05:42:01;;;;;;;;;18.00;17.33;;;;;10.22;75.55;101803.84;5045714;28;60735;-47
2024/02/06 05:44:26;;;;;;;;;17.33;16.33;;;;;10.22;75.65;101795.88;5045937;28;62279;-45
2024/02/06 05:46:52;;;;;;;;;15.67;14.67;;;;;10.22;75.67;101795.88;5055177;28;45446;-47
2024/02/06 05:49:17;;;;;;;;;18.67;17.00;;;;;10.21;75.68;101794.13;5044692;28;45388;-45
2024/02/06 05:51:42;;;;;;;;;16.33;16.33;;;;;10.20;75.83;101789.72;5026215;28;45515;-45
2024/02/06 05:54:08;;;;;;;;;16.67;16.67;;;;;10.22;75.59;101792.31;5056648;28;74435;-45
2024/02/06 05:56:34;;;;;;;;;19.00;15.67;;;;;10.22;75.73;101784.34;5043396;28;45707;-45
2024/02/06 05:58:59;;;;;;;;;18.00;13.67;;;;;10.23;75.75;101794.97;5053709;28;45534;-46
2024/02/06 06:01:25;;;;;;;;;19.33;18.67;;;;;10.24;75.50;101786.03;5044115;28;59840;-45
2024/02/06 06:03:50;;;;;;;;;18.67;17.00;;;;;10.25;75.53;101787.78;5049706;28;73482;-45
2024/02/06 06:06:15;;;;;;;;;16.00;14.33;;;;;10.24;75.77;101785.19;5031951;28;52848;-45
2024/02/06 06:08:41;;;;;;;;;17.67;16.67;;;;;10.25;75.38;101789.59;5050575;28;45349;-45
2024/02/06 06:11:06;;;;;;;;;20.33;17.00;;;;;10.24;75.76;101782.53;5049132;28;45615;-45
2024/02/06 06:13:33;;;;;;;;;20.67;13.67;;;;;10.24;75.45;101779.84;5037549;28;46045;-45
2024/02/06 06:15:58;;;;;;;;;24.00;14.33;;;;;10.24;75.62;101785.19;5051441;28;45382;-46
2024/02/06 06:18:23;;;;;;;;;19.33;19.00;;;;;10.25;75.72;101797.56;5024017;28;68316;-46
2024/02/06 06:20:49;;;;;;;;;17.67;16.67;;;;;10.26;75.80;101784.22;5044304;28;70609;-44
2024/02/06 06:23:14;;;;;;;;;17.00;15.00;;;;;10.27;75.66;101785.94;5048821;28;75565;-46
2024/02/06 06:25:39;;;;;;;;;20.00;16.00;;;;;10.29;75.51;101787.69;5043143;28;70417;-46
2024/02/06 06:28:07;;;;;;;;;24.33;20.00;;;;;10.28;75.33;101781.50;5051162;28;64151;-47
2024/02/06 06:30:33;;;;;;;;;18.33;14.33;;;;;10.25;75.63;101790.44;5045294;28;45380;-48
2024/02/06 06:32:58;;;;;;;;;24.00;20.00;;;;;10.26;75.32;101778.03;5036108;28;72439;-46
2024/02/06 06:35:23;;;;;;;;;19.00;17.00;;;;;10.30;75.35;101789.41;5013326;28;45449;-47
2024/02/06 06:37:49;;;;;;;;;23.33;17.67;;;;;10.29;75.47;101783.22;5048095;28;45727;-46
2024/02/06 06:40:14;;;;;;;;;18.00;16.00;;;;;10.30;75.64;101778.78;5028386;28;62187;-44
2024/02/06 06:42:40;;;;;;;;;14.00;13.33;;;;;10.29;75.19;101780.56;5041901;28;46019;-47
2024/02/06 06:45:05;;;;;;;;;22.00;22.00;;;;;10.29;75.47;101771.75;5038168;28;45458;-44
2024/02/06 06:47:31;;;;;;;;;19.00;15.00;;;;;10.31;75.72;101783.19;5046242;28;45798;-47
2024/02/06 06:49:56;;;;;;;;;15.67;13.67;;;;;10.33;75.80;101782.22;5048427;28;67157;-45
2024/02/06 06:52:22;;;;;;;;;18.67;16.33;;;;;10.33;75.38;101784.00;5045978;28;57119;-45
2024/02/06 06:54:47;;;;;;;;;20.00;16.33;;;;;10.32;75.43;101783.13;5051490;28;45648;-46
2024/02/06 06:57:12;;;;;;;;;16.67;11.00;;;;;10.33;75.54;101782.22;5040216;28;57748;-44
2024/02/06 06:59:38;;;;;;;;;20.33;16.33;;;;;10.34;75.64;101775.97;5047390;28;69424;-45
2024/02/06 07:02:03;;;;;;;;;17.00;15.33;;;;;10.36;75.69;101781.28;5046634;28;45356;-45
2024/02/06 07:04:29;;;;;;;;;24.67;17.00;;;;;10.38;75.56;101782.09;5047316;28;45206;-45
2024/02/06 07:06:55;;;;;;;;;20.33;18.00;;;;;10.38;75.45;101780.31;5045584;28;69428;-44
2024/02/06 07:09:26;;;;;;;;;23.00;18.67;;;;;10.38;75.15;101787.41;5033361;28;45622;-45
2024/02/06 07:11:52;;;;;;;;;24.00;19.67;;;;;10.37;75.10;101781.22;5045964;28;65342;-45
2024/02/06 07:14:18;;;;;;;;;20.33;13.33;;;;;10.38;75.35;101782.97;5024518;28;45397;-45
2024/02/06 07:16:43;;;;;;;;;21.00;14.67;;;;;10.40;75.16;101796.19;5033014;28;45571;-45
2024/02/06 07:19:09;;;;;;;;;18.00;15.33;;;;;10.42;75.21;101791.72;5041351;28;45511;-45
2024/02/06 07:21:35;;;;;;;;;16.67;15.67;;;;;10.45;75.18;101796.91;5039620;28;46230;-46
2024/02/06 07:24:01;;;;;;;;;18.00;17.00;;;;;10.47;75.47;101800.41;5035675;28;65657;-44
2024/02/06 07:26:27;;;;;;;;;21.33;18.00;;;;;10.48;75.12;101801.25;5047190;28;45816;-44
2024/02/06 07:28:53;;;;;;;;;18.67;16.00;;;;;10.50;75.14;101805.63;5032219;28;45416;-46
2024/02/06 07:31:18;;;;;;;;;13.67;12.33;;;;;10.49;74.98;101806.53;5045047;28;46587;-44
2024/02/06 07:33:43;;;;;;;;;16.67;12.00;;;;;10.51;74.91;101818.00;5022847;28;63656;-46
2024/02/06 07:36:09;;;;;;;;;19.67;19.00;;;;;10.52;74.85;101813.53;5041214;28;47578;-46
2024/02/06 07:38:35;;;;;;;;;18.33;17.33;;;;;10.53;74.61;101813.50;5046441;28;45661;-46
2024/02/06 07:41:00;;;;;;;;;18.67;16.33;;;;;10.52;74.69;101811.75;5026137;28;46101;-44
2024/02/06 07:43:26;;;;;;;;;21.67;17.33;;;;;10.51;74.73;101817.16;5039987;28;45371;-44
2024/02/06 07:45:52;;;;;;;;;10.33;8.67;;;;;10.51;74.44;101819.81;5032176;28;57360;-45
2024/02/06 07:48:18;;;;;;;;;15.00;12.67;;;;;10.49;74.68;101814.50;5041254;28;45442;-46
2024/02/06 07:50:47;;;;;;;;;17.33;16.67;;;;;10.51;74.60;101823.31;5038376;28;47499;-48
2024/02/06 07:53:13;;;;;;;;;18.00;12.67;;;;;10.53;74.32;101823.25;5048478;28;45450;-47
2024/02/06 07:55:39;;;;;;;;;16.67;12.67;;;;;10.55;74.42;101813.44;5039576;28;45431;-45
2024/02/06 07:58:04;;;;;;;;;15.00;14.00;;;;;10.55;74.00;101821.44;5053410;28;45616;-47
2024/02/06 08:00:30;;;;;;;;;15.33;15.33;;;;;10.55;74.06;101826.75;5033181;28;45993;-50
2024/02/06 08:02:55;;;;;;;;;21.00;16.33;;;;;10.58;74.04;101822.19;5036383;28;45424;-47
2024/02/06 08:05:21;;;;;;;;;20.00;12.00;;;;;10.62;73.80;101827.41;5051478;28;45435;-51
2024/02/06 08:07:46;;;;;;;;;16.67;14.33;;;;;10.63;73.81;101811.38;5037333;28;45673;-49
2024/02/06 08:10:12;;;;;;;;;16.33;14.67;;;;;10.66;73.60;101811.28;5043492;28;45976;-51
2024/02/06 08:12:37;;;;;;;;;12.33;11.33;;;;;10.70;73.42;101814.72;5046615;28;45386;-49
2024/02/06 08:15:04;;;;;;;;;11.00;10.00;;;;;10.73;73.29;101810.16;5039895;28;45317;-48
2024/02/06 08:17:30;;;;;;;;;16.00;10.00;;;;;10.80;73.34;101821.44;5049734;28;45359;-46
2024/02/06 08:19:56;;;;;;;;;11.33;11.33;;;;;10.87;72.93;101825.66;5045173;28;46228;-51
2024/02/06 08:22:21;;;;;;;;;17.67;11.00;;;;;10.90;72.78;101822.88;5045497;28;70265;-46
2024/02/06 08:24:46;;;;;;;;;15.33;12.00;;;;;10.97;72.65;101823.53;5039760;28;67607;-47
2024/02/06 08:27:12;;;;;;;;;13.33;11.33;;;;;11.00;72.45;101814.56;5042425;28;45380;-47
2024/02/06 08:29:37;;;;;;;;;13.67;11.33;;;;;11.04;72.09;101814.41;5050546;28;71470;-46
2024/02/06 08:32:03;;;;;;;;;16.00;14.00;;;;;11.08;71.93;101807.16;5020972;28;45528;-46
2024/02/06 08:34:28;;;;;;;;;17.67;15.00;;;;;11.15;71.85;101816.66;5051686;28;45431;-47
2024/02/06 08:36:53;;;;;;;;;13.33;10.33;;;;;11.24;71.37;101815.47;5043102;28;66834;-47
2024/02/06 08:39:19;;;;;;;;;14.67;5.67;;;;;11.32;71.46;101821.38;5037995;28;74155;-49
2024/02/06 08:41:45;;;;;;;;;12.33;11.67;;;;;11.37;70.72;101821.22;5052301;28;45444;-47
2024/02/06 08:44:10;;;;;;;;;15.00;11.67;;;;;11.41;70.95;101817.50;5040257;28;45749;-47
2024/02/06 08:46:36;;;;;;;;;13.00;9.00;;;;;11.49;70.86;101818.09;5049614;28;60314;-52
2024/02/06 08:49:01;;;;;;;;;12.33;10.00;;;;;11.55;70.49;101819.63;5037717;28;56643;-47
2024/02/06 08:51:26;;;;;;;;;7.00;7.00;;;;;11.61;70.09;101813.22;5044924;28;72766;-48
2024/02/06 08:53:51;;;;;;;;;13.67;12.67;;;;;11.65;70.27;101818.38;5042336;28;56752;-49
2024/02/06 08:56:17;;;;;;;;;17.00;12.00;;;;;11.71;69.85;101814.63;5037444;28;51070;-48
2024/02/06 08:58:42;;;;;;;;;11.00;9.00;;;;;11.79;69.76;101822.31;5049824;28;60795;-50
2024/02/06 09:01:08;;;;;;;;;11.33;10.00;;;;;11.88;69.38;101824.63;5045897;28;45407;-47
2024/02/06 09:03:33;;;;;;;;;15.67;12.67;;;;;11.94;69.05;101823.50;5050392;28;45410;-48
2024/02/06 09:05:58;;;;;;;;;11.00;10.00;;;;;11.99;69.12;101814.41;5048778;28;45353;-49
2024/02/06 09:08:24;;;;;;;;;11.00;11.00;;;;;12.07;68.78;101817.66;5036596;28;72248;-50
2024/02/06 09:10:49;;;;;;;;;13.67;9.67;;;;;12.17;68.69;101818.13;5048369;28;72064;-49
2024/02/06 09:13:14;;;;;;;;;12.00;9.00;;;;;12.28;68.29;101816.84;5037410;28;51322;-50
2024/02/06 09:15:40;;;;;;;;;16.67;11.00;;;;;12.36;68.34;101812.94;5023652;28;45313;-50
2024/02/06 09:18:05;;;;;;;;;10.00;9.67;;;;;12.43;67.70;101812.69;5041875;28;75406;-51
2024/02/06 09:20:30;;;;;;;;;9.00;9.00;;;;;12.42;67.18;101803.78;5037502;28;45364;-49
2024/02/06 09:22:56;;;;;;;;;14.67;12.00;;;;;12.45;67.18;101811.69;5041139;28;56407;-49
2024/02/06 09:25:21;;;;;;;;;11.00;11.00;;;;;12.55;67.39;101812.16;5049822;28;45879;-50
2024/02/06 09:27:47;;;;;;;;;13.00;12.00;;;;;12.64;66.76;101810.91;5049298;28;61711;-47
2024/02/06 09:30:12;;;;;;;;;11.00;8.67;;;;;12.72;66.58;101803.41;5040529;28;60916;-47
2024/02/06 09:32:40;;;;;;;;;14.33;11.00;;;;;12.81;66.45;101797.69;5045076;28;45395;-50
2024/02/06 09:35:07;;;;;;;;;12.00;10.67;;;;;12.88;66.10;101798.28;5040011;28;68128;-46
2024/02/06 09:37:33;;;;;;;;;11.00;11.00;;;;;12.93;65.80;101795.41;5041214;28;46054;-49
2024/02/06 09:39:59;;;;;;;;;9.33;8.00;;;;;13.02;65.59;101789.66;5046416;28;45305;-50
2024/02/06 09:42:24;;;;;;;;;11.00;11.00;;;;;13.11;65.49;101799.06;5042538;28;68332;-48
2024/02/06 09:44:50;;;;;;;;;15.67;9.33;;;;;13.24;64.94;101803.81;5043710;28;45407;-49
2024/02/06 09:47:15;;;;;;;;;15.33;11.33;;;;;13.39;64.84;101804.06;5045523;28;46537;-50
2024/02/06 09:49:41;;;;;;;;;11.00;9.33;;;;;13.52;64.44;101801.69;5050382;28;59452;-49
2024/02/06 09:52:06;;;;;;;;;11.67;11.00;;;;;13.62;63.70;101802.97;5037082;28;57637;-47
2024/02/06 09:54:32;;;;;;;;;11.33;11.33;;;;;13.74;63.84;101801.56;5049455;28;45391;-47
2024/02/06 09:56:58;;;;;;;;;10.00;9.00;;;;;13.84;63.89;101796.63;5019677;28;54876;-46
2024/02/06 09:59:24;;;;;;;;;9.33;8.00;;;;;13.97;63.69;101792.41;5033477;28;50577;-48
2024/02/06 10:01:51;;;;;;;;;15.00;10.33;;;;;14.07;63.51;101787.50;5045557;28;45642;-47
2024/02/06 10:04:20;;;;;;;;;9.00;9.00;;;;;14.10;62.57;101790.00;5024791;28;45362;-46
2024/02/06 10:06:46;;;;;;;;;14.33;11.33;;;;;14.05;62.85;101784.00;5044559;28;45717;-47
2024/02/06 10:09:12;;;;;;;;;17.33;14.00;;;;;14.03;62.52;101781.41;5037865;28;45360;-51
2024/02/06 10:11:39;;;;;;;;;12.33;12.00;;;;;13.99;62.75;101789.69;5044061;28;45660;-47
2024/02/06 10:14:05;;;;;;;;;10.00;9.00;;;;;13.93;62.50;101785.47;5050317;28;45498;-48
2024/02/06 10:16:32;;;;;;;;;17.00;13.67;;;;;13.93;62.44;101787.31;5015658;28;48319;-47
2024/02/06 10:18:57;;;;;;;;;16.67;10.33;;;;;13.88;62.25;101782.16;5052796;28;45359;-47
2024/02/06 10:21:23;;;;;;;;;17.67;13.00;;;;;13.80;62.31;101776.31;5043515;28;45563;-49
2024/02/06 10:23:49;;;;;;;;;13.00;9.33;;;;;13.73;62.01;101776.63;5057865;28;70612;-47
2024/02/06 10:26:20;;;;;;;;;12.00;11.33;;;;;13.75;61.75;101765.84;5027019;28;45915;-47
2024/02/06 10:28:46;;;;;;;;;10.00;8.67;;;;;13.81;62.48;101756.66;5040621;28;45419;-50
2024/02/06 10:31:12;;;;;;;;;23.00;15.67;;;;;13.89;61.69;101749.13;5043211;28;45407;-49
2024/02/06 10:33:38;;;;;;;;;10.33;8.33;;;;;13.89;61.47;101774.06;5051061;28;45296;-48
2024/02/06 10:36:04;;;;;;;;;7.00;7.00;;;;;13.86;61.13;101758.16;5056518;28;45332;-49
2024/02/06 10:38:30;;;;;;;;;10.00;8.00;;;;;13.77;61.53;101760.44;5059882;28;45506;-47
2024/02/06 10:40:56;;;;;;;;;10.67;8.00;;;;;13.75;61.68;101756.97;5028458;28;45515;-47
2024/02/06 10:43:29;;;;;;;;;12.33;7.33;;;;;13.72;61.27;101753.47;5033390;28;45447;-55
2024/02/06 10:46:01;;;;;;;;;14.67;12.33;;;;;13.67;61.11;101755.50;5053731;28;46525;-49
2024/02/06 10:48:27;;;;;;;;;17.67;12.67;;;;;13.67;61.41;101760.84;5021882;28;45429;-49
2024/02/06 10:51:01;;;;;;;;;14.33;10.33;;;;;13.65;61.37;101759.19;5040069;28;45469;-48
2024/02/06 10:53:26;;;;;;;;;8.00;8.00;;;;;13.68;61.57;101759.91;5048393;28;45447;-48
2024/02/06 10:56:11;;;;;;;;;10.00;9.00;;;;;13.78;60.37;101741.66;5040467;28;45261;-47
2024/02/06 10:58:41;;;;;;;;;5.67;5.67;;;;;13.83;60.74;101741.41;5030973;28;45317;-46
2024/02/06 11:01:09;;;;;;;;;9.33;9.33;;;;;13.96;60.72;101741.66;5040748;28;45763;-48
2024/02/06 11:03:40;;;;;;;;;8.33;8.33;;;;;14.14;60.20;101747.91;5042483;28;45522;-47
2024/02/06 11:06:22;;;;;;;;;6.33;6.00;;;;;14.30;60.44;101764.94;5029015;28;46348;-52
2024/02/06 11:08:47;;;;;;;;;9.00;7.33;;;;;14.43;60.09;101781.25;5031519;28;45415;-49